sensor_id;sensor_type;location;lat;lon;timestamp;temperature;humidity
38464;DHT22;24243;51.956;5.902;2023-08-12T00:01:23;25.70;57.70
38464;DHT22;24243;51.956;5.902;2023-08-12T00:04:10;25.70;58.30
38464;DHT22;24243;51.956;5.902;2023-08-12T00:07:00;25.70;57.70
38464;DHT22;24243;51.956;5.902;2023-08-12T00:09:45;25.70;57.70
38464;DHT22;24243;51.956;5.902;2023-08-12T00:12:31;25.70;57.70
38464;DHT22;24243;51.956;5.902;2023-08-12T00:15:17;25.70;57.70
38464;DHT22;24243;51.956;5.902;2023-08-12T00:18:02;25.70;57.70
38464;DHT22;24243;51.956;5.902;2023-08-12T00:20:51;25.70;57.70
38464;DHT22;24243;51.956;5.902;2023-08-12T00:23:37;25.70;57.70
38464;DHT22;24243;51.956;5.902;2023-08-12T00:26:23;25.70;57.80
38464;DHT22;24243;51.956;5.902;2023-08-12T00:29:09;25.70;57.70
38464;DHT22;24243;51.956;5.902;2023-08-12T00:31:54;25.70;57.70
38464;DHT22;24243;51.956;5.902;2023-08-12T00:34:41;25.70;57.70
38464;DHT22;24243;51.956;5.902;2023-08-12T00:37:26;25.60;57.70
38464;DHT22;24243;51.956;5.902;2023-08-12T00:40:12;25.70;57.70
38464;DHT22;24243;51.956;5.902;2023-08-12T00:42:58;25.70;57.80
38464;DHT22;24243;51.956;5.902;2023-08-12T00:45:43;25.70;57.80
38464;DHT22;24243;51.956;5.902;2023-08-12T00:48:29;25.70;57.70
38464;DHT22;24243;51.956;5.902;2023-08-12T00:51:15;25.70;58.30
38464;DHT22;24243;51.956;5.902;2023-08-12T00:54:02;25.70;57.70
38464;DHT22;24243;51.956;5.902;2023-08-12T00:56:49;25.70;57.70
38464;DHT22;24243;51.956;5.902;2023-08-12T00:59:35;25.60;57.70
38464;DHT22;24243;51.956;5.902;2023-08-12T01:02:22;25.70;57.80
38464;DHT22;24243;51.956;5.902;2023-08-12T01:05:08;25.60;57.70
38464;DHT22;24243;51.956;5.902;2023-08-12T01:07:53;25.70;57.80
38464;DHT22;24243;51.956;5.902;2023-08-12T01:10:40;25.70;57.80
38464;DHT22;24243;51.956;5.902;2023-08-12T01:13:29;25.60;57.70
38464;DHT22;24243;51.956;5.902;2023-08-12T01:16:17;25.60;57.70
38464;DHT22;24243;51.956;5.902;2023-08-12T01:19:04;25.60;57.70
38464;DHT22;24243;51.956;5.902;2023-08-12T01:21:50;25.60;57.70
38464;DHT22;24243;51.956;5.902;2023-08-12T01:27:23;25.60;57.70
38464;DHT22;24243;51.956;5.902;2023-08-12T01:30:09;25.60;57.70
38464;DHT22;24243;51.956;5.902;2023-08-12T01:33:37;25.60;57.70
38464;DHT22;24243;51.956;5.902;2023-08-12T01:36:15;25.60;57.70
38464;DHT22;24243;51.956;5.902;2023-08-12T01:39:01;25.60;57.70
38464;DHT22;24243;51.956;5.902;2023-08-12T01:41:47;25.60;57.70
38464;DHT22;24243;51.956;5.902;2023-08-12T01:44:32;25.60;57.70
38464;DHT22;24243;51.956;5.902;2023-08-12T01:47:18;25.60;57.70
38464;DHT22;24243;51.956;5.902;2023-08-12T01:50:04;25.60;57.70
38464;DHT22;24243;51.956;5.902;2023-08-12T01:52:49;25.60;57.70
38464;DHT22;24243;51.956;5.902;2023-08-12T01:55:35;25.60;57.70
38464;DHT22;24243;51.956;5.902;2023-08-12T01:58:20;25.60;57.70
38464;DHT22;24243;51.956;5.902;2023-08-12T02:01:06;25.60;57.70
38464;DHT22;24243;51.956;5.902;2023-08-12T02:03:51;25.60;57.70
38464;DHT22;24243;51.956;5.902;2023-08-12T02:06:37;25.60;57.70
38464;DHT22;24243;51.956;5.902;2023-08-12T02:09:22;25.60;57.70
38464;DHT22;24243;51.956;5.902;2023-08-12T02:12:08;25.60;57.70
38464;DHT22;24243;51.956;5.902;2023-08-12T02:14:54;25.60;57.80
38464;DHT22;24243;51.956;5.902;2023-08-12T02:17:39;25.60;57.70
38464;DHT22;24243;51.956;5.902;2023-08-12T02:20:25;25.60;57.70
38464;DHT22;24243;51.956;5.902;2023-08-12T02:23:11;25.60;57.80
38464;DHT22;24243;51.956;5.902;2023-08-12T02:25:56;25.60;57.70
38464;DHT22;24243;51.956;5.902;2023-08-12T02:28:42;25.60;57.70
38464;DHT22;24243;51.956;5.902;2023-08-12T02:31:27;25.60;57.70
38464;DHT22;24243;51.956;5.902;2023-08-12T02:34:13;25.60;57.70
38464;DHT22;24243;51.956;5.902;2023-08-12T02:36:58;25.60;57.70
38464;DHT22;24243;51.956;5.902;2023-08-12T02:39:44;25.60;57.80
38464;DHT22;24243;51.956;5.902;2023-08-12T02:42:29;25.60;57.70
38464;DHT22;24243;51.956;5.902;2023-08-12T02:45:15;25.60;57.70
38464;DHT22;24243;51.956;5.902;2023-08-12T02:48:00;25.60;57.80
38464;DHT22;24243;51.956;5.902;2023-08-12T02:50:46;25.60;57.80
38464;DHT22;24243;51.956;5.902;2023-08-12T02:53:31;25.60;57.80
38464;DHT22;24243;51.956;5.902;2023-08-12T02:56:17;25.60;57.80
38464;DHT22;24243;51.956;5.902;2023-08-12T02:59:02;25.60;57.80
38464;DHT22;24243;51.956;5.902;2023-08-12T03:01:48;25.60;57.80
38464;DHT22;24243;51.956;5.902;2023-08-12T03:04:34;25.60;57.80
38464;DHT22;24243;51.956;5.902;2023-08-12T03:07:19;25.60;57.80
38464;DHT22;24243;51.956;5.902;2023-08-12T03:10:05;25.60;57.80
38464;DHT22;24243;51.956;5.902;2023-08-12T03:12:50;25.60;57.80
38464;DHT22;24243;51.956;5.902;2023-08-12T03:15:39;25.60;57.80
38464;DHT22;24243;51.956;5.902;2023-08-12T03:18:25;25.60;58.40
38464;DHT22;24243;51.956;5.902;2023-08-12T03:21:11;25.60;57.80
38464;DHT22;24243;51.956;5.902;2023-08-12T03:23:56;25.60;57.80
38464;DHT22;24243;51.956;5.902;2023-08-12T03:26:42;25.60;57.80
38464;DHT22;24243;51.956;5.902;2023-08-12T03:29:27;25.60;57.80
38464;DHT22;24243;51.956;5.902;2023-08-12T03:32:13;25.60;57.80
38464;DHT22;24243;51.956;5.902;2023-08-12T03:34:58;25.60;57.80
38464;DHT22;24243;51.956;5.902;2023-08-12T03:37:44;25.60;57.80
38464;DHT22;24243;51.956;5.902;2023-08-12T03:40:29;25.60;57.80
38464;DHT22;24243;51.956;5.902;2023-08-12T03:43:15;25.60;57.80
38464;DHT22;24243;51.956;5.902;2023-08-12T03:46:00;25.50;58.30
38464;DHT22;24243;51.956;5.902;2023-08-12T03:48:46;25.60;57.80
38464;DHT22;24243;51.956;5.902;2023-08-12T03:51:31;25.60;57.80
38464;DHT22;24243;51.956;5.902;2023-08-12T03:54:17;25.60;57.80
38464;DHT22;24243;51.956;5.902;2023-08-12T03:57:03;25.50;57.80
38464;DHT22;24243;51.956;5.902;2023-08-12T03:59:48;25.60;57.80
38464;DHT22;24243;51.956;5.902;2023-08-12T04:02:34;25.60;57.80
38464;DHT22;24243;51.956;5.902;2023-08-12T04:05:20;25.50;57.80
38464;DHT22;24243;51.956;5.902;2023-08-12T04:08:05;25.50;57.80
38464;DHT22;24243;51.956;5.902;2023-08-12T04:10:51;25.60;57.90
38464;DHT22;24243;51.956;5.902;2023-08-12T04:13:37;25.60;57.90
38464;DHT22;24243;51.956;5.902;2023-08-12T04:16:22;25.50;57.80
38464;DHT22;24243;51.956;5.902;2023-08-12T04:19:08;25.60;57.90
38464;DHT22;24243;51.956;5.902;2023-08-12T04:21:54;25.60;57.90
38464;DHT22;24243;51.956;5.902;2023-08-12T04:24:39;25.60;57.90
38464;DHT22;24243;51.956;5.902;2023-08-12T04:27:25;25.50;57.80
38464;DHT22;24243;51.956;5.902;2023-08-12T04:30:10;25.60;57.90
38464;DHT22;24243;51.956;5.902;2023-08-12T04:32:56;25.50;57.80
38464;DHT22;24243;51.956;5.902;2023-08-12T04:35:41;25.60;57.90
38464;DHT22;24243;51.956;5.902;2023-08-12T04:38:27;25.60;57.90
38464;DHT22;24243;51.956;5.902;2023-08-12T04:41:12;25.60;57.90
38464;DHT22;24243;51.956;5.902;2023-08-12T04:43:58;25.50;57.90
38464;DHT22;24243;51.956;5.902;2023-08-12T04:46:43;25.60;57.90
38464;DHT22;24243;51.956;5.902;2023-08-12T04:49:29;25.50;57.80
38464;DHT22;24243;51.956;5.902;2023-08-12T04:52:15;25.50;57.80
38464;DHT22;24243;51.956;5.902;2023-08-12T04:55:00;25.60;57.90
38464;DHT22;24243;51.956;5.902;2023-08-12T04:57:46;25.60;57.90
38464;DHT22;24243;51.956;5.902;2023-08-12T05:00:32;25.50;57.90
38464;DHT22;24243;51.956;5.902;2023-08-12T05:03:17;25.50;57.90
38464;DHT22;24243;51.956;5.902;2023-08-12T05:06:03;25.50;57.90
38464;DHT22;24243;51.956;5.902;2023-08-12T05:08:49;25.50;57.90
38464;DHT22;24243;51.956;5.902;2023-08-12T05:11:34;25.60;58.00
38464;DHT22;24243;51.956;5.902;2023-08-12T05:14:20;25.60;58.00
38464;DHT22;24243;51.956;5.902;2023-08-12T05:17:05;25.50;57.90
38464;DHT22;24243;51.956;5.902;2023-08-12T05:19:51;25.60;58.00
38464;DHT22;24243;51.956;5.902;2023-08-12T05:22:36;25.60;58.00
38464;DHT22;24243;51.956;5.902;2023-08-12T05:25:22;25.50;58.00
38464;DHT22;24243;51.956;5.902;2023-08-12T05:28:07;25.50;58.00
38464;DHT22;24243;51.956;5.902;2023-08-12T05:30:53;25.50;58.00
38464;DHT22;24243;51.956;5.902;2023-08-12T05:33:40;25.50;58.00
38464;DHT22;24243;51.956;5.902;2023-08-12T05:36:26;25.60;58.10
38464;DHT22;24243;51.956;5.902;2023-08-12T05:39:11;25.50;58.00
38464;DHT22;24243;51.956;5.902;2023-08-12T05:41:57;25.50;58.00
38464;DHT22;24243;51.956;5.902;2023-08-12T05:44:43;25.50;58.10
38464;DHT22;24243;51.956;5.902;2023-08-12T05:47:28;25.50;58.10
38464;DHT22;24243;51.956;5.902;2023-08-12T05:50:14;25.50;58.10
38464;DHT22;24243;51.956;5.902;2023-08-12T05:52:59;25.50;58.10
38464;DHT22;24243;51.956;5.902;2023-08-12T05:55:45;25.50;58.10
38464;DHT22;24243;51.956;5.902;2023-08-12T05:58:30;25.50;58.10
38464;DHT22;24243;51.956;5.902;2023-08-12T06:01:16;25.50;58.10
38464;DHT22;24243;51.956;5.902;2023-08-12T06:04:02;25.50;58.10
38464;DHT22;24243;51.956;5.902;2023-08-12T06:06:47;25.40;58.00
38464;DHT22;24243;51.956;5.902;2023-08-12T06:09:33;25.40;58.10
38464;DHT22;24243;51.956;5.902;2023-08-12T06:12:18;25.40;58.10
38464;DHT22;24243;51.956;5.902;2023-08-12T06:15:04;25.40;58.10
38464;DHT22;24243;51.956;5.902;2023-08-12T06:17:50;25.50;58.20
38464;DHT22;24243;51.956;5.902;2023-08-12T06:20:35;25.50;58.20
38464;DHT22;24243;51.956;5.902;2023-08-12T06:23:21;25.50;58.30
38464;DHT22;24243;51.956;5.902;2023-08-12T06:26:06;25.50;58.30
38464;DHT22;24243;51.956;5.902;2023-08-12T06:28:52;25.50;58.30
38464;DHT22;24243;51.956;5.902;2023-08-12T06:31:38;25.50;58.30
38464;DHT22;24243;51.956;5.902;2023-08-12T06:34:23;25.50;58.30
38464;DHT22;24243;51.956;5.902;2023-08-12T06:37:09;25.60;58.40
38464;DHT22;24243;51.956;5.902;2023-08-12T06:39:54;25.50;58.40
38464;DHT22;24243;51.956;5.902;2023-08-12T06:42:40;25.50;58.40
38464;DHT22;24243;51.956;5.902;2023-08-12T06:45:26;25.50;58.40
38464;DHT22;24243;51.956;5.902;2023-08-12T06:48:11;25.50;58.40
38464;DHT22;24243;51.956;5.902;2023-08-12T06:50:57;25.50;58.40
38464;DHT22;24243;51.956;5.902;2023-08-12T06:53:42;25.50;58.50
38464;DHT22;24243;51.956;5.902;2023-08-12T06:56:28;25.50;58.50
38464;DHT22;24243;51.956;5.902;2023-08-12T06:59:14;25.50;59.10
38464;DHT22;24243;51.956;5.902;2023-08-12T07:01:59;25.50;58.50
38464;DHT22;24243;51.956;5.902;2023-08-12T07:04:45;25.50;58.50
38464;DHT22;24243;51.956;5.902;2023-08-12T07:07:30;25.50;58.60
38464;DHT22;24243;51.956;5.902;2023-08-12T07:10:16;25.50;58.60
38464;DHT22;24243;51.956;5.902;2023-08-12T07:13:01;25.60;58.60
38464;DHT22;24243;51.956;5.902;2023-08-12T07:15:47;25.60;58.70
38464;DHT22;24243;51.956;5.902;2023-08-12T07:18:32;25.50;58.60
38464;DHT22;24243;51.956;5.902;2023-08-12T07:21:18;25.50;58.60
38464;DHT22;24243;51.956;5.902;2023-08-12T07:24:04;25.60;58.70
38464;DHT22;24243;51.956;5.902;2023-08-12T07:26:49;25.50;58.70
38464;DHT22;24243;51.956;5.902;2023-08-12T07:29:35;25.50;58.70
38464;DHT22;24243;51.956;5.902;2023-08-12T07:32:20;25.60;58.70
38464;DHT22;24243;51.956;5.902;2023-08-12T07:35:06;25.60;58.70
38464;DHT22;24243;51.956;5.902;2023-08-12T07:37:52;25.50;58.70
38464;DHT22;24243;51.956;5.902;2023-08-12T07:40:37;25.60;58.80
38464;DHT22;24243;51.956;5.902;2023-08-12T07:43:23;25.60;58.80
38464;DHT22;24243;51.956;5.902;2023-08-12T07:46:08;25.60;58.80
38464;DHT22;24243;51.956;5.902;2023-08-12T07:48:54;25.60;58.80
38464;DHT22;24243;51.956;5.902;2023-08-12T07:51:40;25.60;58.80
38464;DHT22;24243;51.956;5.902;2023-08-12T07:54:25;25.60;58.80
38464;DHT22;24243;51.956;5.902;2023-08-12T07:57:11;25.60;58.80
38464;DHT22;24243;51.956;5.902;2023-08-12T07:59:56;25.60;58.80
38464;DHT22;24243;51.956;5.902;2023-08-12T08:02:42;25.60;58.90
38464;DHT22;24243;51.956;5.902;2023-08-12T08:05:27;25.60;58.90
38464;DHT22;24243;51.956;5.902;2023-08-12T08:08:13;25.60;58.90
38464;DHT22;24243;51.956;5.902;2023-08-12T08:10:58;25.60;58.90
38464;DHT22;24243;51.956;5.902;2023-08-12T08:13:44;25.60;59.00
38464;DHT22;24243;51.956;5.902;2023-08-12T08:16:29;25.60;59.10
38464;DHT22;24243;51.956;5.902;2023-08-12T08:19:15;25.60;59.10
38464;DHT22;24243;51.956;5.902;2023-08-12T08:22:00;25.60;59.20
38464;DHT22;24243;51.956;5.902;2023-08-12T08:24:46;25.60;59.20
38464;DHT22;24243;51.956;5.902;2023-08-12T08:27:31;25.60;59.30
38464;DHT22;24243;51.956;5.902;2023-08-12T08:30:17;25.60;59.30
38464;DHT22;24243;51.956;5.902;2023-08-12T08:33:03;25.70;59.40
38464;DHT22;24243;51.956;5.902;2023-08-12T08:35:49;25.70;59.50
38464;DHT22;24243;51.956;5.902;2023-08-12T08:38:34;25.60;59.40
38464;DHT22;24243;51.956;5.902;2023-08-12T08:41:20;25.70;59.50
38464;DHT22;24243;51.956;5.902;2023-08-12T08:44:07;25.70;59.60
38464;DHT22;24243;51.956;5.902;2023-08-12T08:46:53;25.70;60.10
38464;DHT22;24243;51.956;5.902;2023-08-12T08:49:39;25.70;60.40
38464;DHT22;24243;51.956;5.902;2023-08-12T08:52:25;25.70;60.30
38464;DHT22;24243;51.956;5.902;2023-08-12T08:55:11;25.70;60.30
38464;DHT22;24243;51.956;5.902;2023-08-12T08:57:57;25.70;60.70
38464;DHT22;24243;51.956;5.902;2023-08-12T09:00:43;25.70;60.60
38464;DHT22;24243;51.956;5.902;2023-08-12T09:03:28;25.70;60.50
38464;DHT22;24243;51.956;5.902;2023-08-12T09:06:15;25.80;60.50
38464;DHT22;24243;51.956;5.902;2023-08-12T09:09:00;25.80;60.50
38464;DHT22;24243;51.956;5.902;2023-08-12T09:11:47;25.80;60.40
38464;DHT22;24243;51.956;5.902;2023-08-12T09:14:32;25.80;60.40
38464;DHT22;24243;51.956;5.902;2023-08-12T09:17:18;25.80;60.40
38464;DHT22;24243;51.956;5.902;2023-08-12T09:20:04;25.80;60.40
38464;DHT22;24243;51.956;5.902;2023-08-12T09:22:57;25.80;60.40
38464;DHT22;24243;51.956;5.902;2023-08-12T09:25:43;25.80;60.40
38464;DHT22;24243;51.956;5.902;2023-08-12T09:28:32;25.80;60.40
38464;DHT22;24243;51.956;5.902;2023-08-12T09:31:27;25.80;60.40
38464;DHT22;24243;51.956;5.902;2023-08-12T09:34:14;25.80;60.40
38464;DHT22;24243;51.956;5.902;2023-08-12T09:36:59;25.80;60.40
38464;DHT22;24243;51.956;5.902;2023-08-12T09:39:45;25.90;60.40
38464;DHT22;24243;51.956;5.902;2023-08-12T09:42:32;25.90;60.40
38464;DHT22;24243;51.956;5.902;2023-08-12T09:45:18;25.90;60.40
38464;DHT22;24243;51.956;5.902;2023-08-12T09:48:06;26.00;60.40
38464;DHT22;24243;51.956;5.902;2023-08-12T09:50:53;26.00;60.40
38464;DHT22;24243;51.956;5.902;2023-08-12T09:53:39;26.00;60.40
38464;DHT22;24243;51.956;5.902;2023-08-12T09:56:25;26.00;60.30
38464;DHT22;24243;51.956;5.902;2023-08-12T09:59:14;26.10;60.40
38464;DHT22;24243;51.956;5.902;2023-08-12T10:02:04;26.10;60.40
38464;DHT22;24243;51.956;5.902;2023-08-12T10:04:50;26.10;60.30
38464;DHT22;24243;51.956;5.902;2023-08-12T10:07:41;26.10;60.30
38464;DHT22;24243;51.956;5.902;2023-08-12T10:10:26;26.20;60.40
38464;DHT22;24243;51.956;5.902;2023-08-12T10:13:12;26.20;60.30
38464;DHT22;24243;51.956;5.902;2023-08-12T10:15:58;26.20;60.30
38464;DHT22;24243;51.956;5.902;2023-08-12T10:18:44;26.20;60.30
38464;DHT22;24243;51.956;5.902;2023-08-12T10:21:31;26.30;60.40
38464;DHT22;24243;51.956;5.902;2023-08-12T10:24:17;26.30;60.40
38464;DHT22;24243;51.956;5.902;2023-08-12T10:27:03;26.30;60.40
38464;DHT22;24243;51.956;5.902;2023-08-12T10:29:48;26.40;60.50
38464;DHT22;24243;51.956;5.902;2023-08-12T10:32:34;26.40;60.50
38464;DHT22;24243;51.956;5.902;2023-08-12T10:35:20;26.40;60.50
38464;DHT22;24243;51.956;5.902;2023-08-12T10:38:05;26.40;60.50
38464;DHT22;24243;51.956;5.902;2023-08-12T10:40:51;26.40;60.60
38464;DHT22;24243;51.956;5.902;2023-08-12T10:43:48;26.40;60.60
38464;DHT22;24243;51.956;5.902;2023-08-12T10:46:34;26.40;60.60
38464;DHT22;24243;51.956;5.902;2023-08-12T10:49:21;26.40;60.60
38464;DHT22;24243;51.956;5.902;2023-08-12T10:52:06;26.40;60.60
38464;DHT22;24243;51.956;5.902;2023-08-12T10:55:21;26.40;60.60
38464;DHT22;24243;51.956;5.902;2023-08-12T10:58:08;26.40;60.60
38464;DHT22;24243;51.956;5.902;2023-08-12T11:00:57;26.40;60.50
38464;DHT22;24243;51.956;5.902;2023-08-12T11:03:43;26.40;60.50
38464;DHT22;24243;51.956;5.902;2023-08-12T11:06:29;26.40;60.50
38464;DHT22;24243;51.956;5.902;2023-08-12T11:09:14;26.40;60.50
38464;DHT22;24243;51.956;5.902;2023-08-12T11:12:00;26.40;60.40
38464;DHT22;24243;51.956;5.902;2023-08-12T11:14:49;26.40;60.40
38464;DHT22;24243;51.956;5.902;2023-08-12T11:17:39;26.40;60.30
38464;DHT22;24243;51.956;5.902;2023-08-12T11:20:25;26.50;60.30
38464;DHT22;24243;51.956;5.902;2023-08-12T11:23:13;26.50;60.20
38464;DHT22;24243;51.956;5.902;2023-08-12T11:25:58;26.50;60.20
38464;DHT22;24243;51.956;5.902;2023-08-12T11:28:46;26.50;60.10
38464;DHT22;24243;51.956;5.902;2023-08-12T11:31:32;26.50;60.10
38464;DHT22;24243;51.956;5.902;2023-08-12T11:34:19;26.50;60.00
38464;DHT22;24243;51.956;5.902;2023-08-12T11:37:04;26.60;60.00
38464;DHT22;24243;51.956;5.902;2023-08-12T11:39:53;26.60;60.00
38464;DHT22;24243;51.956;5.902;2023-08-12T11:42:39;26.60;59.80
38464;DHT22;24243;51.956;5.902;2023-08-12T11:45:26;26.70;59.80
38464;DHT22;24243;51.956;5.902;2023-08-12T11:48:11;26.60;59.70
38464;DHT22;24243;51.956;5.902;2023-08-12T11:50:58;26.70;59.70
38464;DHT22;24243;51.956;5.902;2023-08-12T11:53:44;26.70;59.70
38464;DHT22;24243;51.956;5.902;2023-08-12T11:56:29;26.70;59.60
38464;DHT22;24243;51.956;5.902;2023-08-12T11:59:15;26.70;59.50
38464;DHT22;24243;51.956;5.902;2023-08-12T12:02:01;26.80;60.20
38464;DHT22;24243;51.956;5.902;2023-08-12T12:04:47;26.80;59.50
38464;DHT22;24243;51.956;5.902;2023-08-12T12:07:32;26.80;59.40
38464;DHT22;24243;51.956;5.902;2023-08-12T12:10:19;26.70;59.30
38464;DHT22;24243;51.956;5.902;2023-08-12T12:13:05;26.70;59.20
38464;DHT22;24243;51.956;5.902;2023-08-12T12:15:51;26.80;59.20
38464;DHT22;24243;51.956;5.902;2023-08-12T12:18:38;26.70;59.10
38464;DHT22;24243;51.956;5.902;2023-08-12T12:21:23;26.80;59.10
38464;DHT22;24243;51.956;5.902;2023-08-12T12:24:09;26.80;59.00
38464;DHT22;24243;51.956;5.902;2023-08-12T12:26:55;26.80;59.00
38464;DHT22;24243;51.956;5.902;2023-08-12T12:29:41;26.80;58.90
38464;DHT22;24243;51.956;5.902;2023-08-12T12:32:27;26.80;58.90
38464;DHT22;24243;51.956;5.902;2023-08-12T12:35:12;26.90;58.90
38464;DHT22;24243;51.956;5.902;2023-08-12T12:37:58;26.90;58.80
38464;DHT22;24243;51.956;5.902;2023-08-12T12:40:43;26.90;58.80
38464;DHT22;24243;51.956;5.902;2023-08-12T12:43:29;26.80;58.70
38464;DHT22;24243;51.956;5.902;2023-08-12T12:46:15;26.90;58.70
38464;DHT22;24243;51.956;5.902;2023-08-12T12:49:01;26.90;58.60
38464;DHT22;24243;51.956;5.902;2023-08-12T12:51:46;26.90;58.50
38464;DHT22;24243;51.956;5.902;2023-08-12T12:54:32;26.90;58.50
38464;DHT22;24243;51.956;5.902;2023-08-12T12:57:17;26.90;58.40
38464;DHT22;24243;51.956;5.902;2023-08-12T13:00:03;26.90;58.30
38464;DHT22;24243;51.956;5.902;2023-08-12T13:02:49;26.90;58.30
38464;DHT22;24243;51.956;5.902;2023-08-12T13:05:35;26.90;58.20
38464;DHT22;24243;51.956;5.902;2023-08-12T13:08:20;26.90;58.10
38464;DHT22;24243;51.956;5.902;2023-08-12T13:11:06;26.80;58.00
38464;DHT22;24243;51.956;5.902;2023-08-12T13:13:52;26.80;57.90
38464;DHT22;24243;51.956;5.902;2023-08-12T13:16:39;26.80;57.80
38464;DHT22;24243;51.956;5.902;2023-08-12T13:19:25;26.80;57.70
38464;DHT22;24243;51.956;5.902;2023-08-12T13:22:10;26.80;57.60
38464;DHT22;24243;51.956;5.902;2023-08-12T13:24:56;26.70;57.50
38464;DHT22;24243;51.956;5.902;2023-08-12T13:27:41;26.70;57.40
38464;DHT22;24243;51.956;5.902;2023-08-12T13:30:27;26.80;57.30
38464;DHT22;24243;51.956;5.902;2023-08-12T13:33:13;26.80;57.30
38464;DHT22;24243;51.956;5.902;2023-08-12T13:35:58;26.80;57.20
38464;DHT22;24243;51.956;5.902;2023-08-12T13:38:44;26.80;57.20
38464;DHT22;24243;51.956;5.902;2023-08-12T13:41:29;26.80;57.10
38464;DHT22;24243;51.956;5.902;2023-08-12T13:44:15;26.80;57.10
38464;DHT22;24243;51.956;5.902;2023-08-12T13:47:00;26.80;57.00
38464;DHT22;24243;51.956;5.902;2023-08-12T13:49:46;26.80;57.00
38464;DHT22;24243;51.956;5.902;2023-08-12T13:52:32;26.80;56.90
38464;DHT22;24243;51.956;5.902;2023-08-12T13:55:17;26.70;56.80
38464;DHT22;24243;51.956;5.902;2023-08-12T13:58:03;26.80;56.90
38464;DHT22;24243;51.956;5.902;2023-08-12T14:00:48;26.70;56.70
38464;DHT22;24243;51.956;5.902;2023-08-12T14:03:34;26.80;56.80
38464;DHT22;24243;51.956;5.902;2023-08-12T14:06:20;26.80;56.80
38464;DHT22;24243;51.956;5.902;2023-08-12T14:09:06;26.80;56.70
38464;DHT22;24243;51.956;5.902;2023-08-12T14:11:53;26.80;56.70
38464;DHT22;24243;51.956;5.902;2023-08-12T14:14:38;26.80;56.60
38464;DHT22;24243;51.956;5.902;2023-08-12T14:17:25;26.80;56.60
38464;DHT22;24243;51.956;5.902;2023-08-12T14:20:11;26.80;56.50
38464;DHT22;24243;51.956;5.902;2023-08-12T14:22:56;26.80;56.50
38464;DHT22;24243;51.956;5.902;2023-08-12T14:25:42;26.80;56.40
38464;DHT22;24243;51.956;5.902;2023-08-12T14:28:28;26.80;56.30
38464;DHT22;24243;51.956;5.902;2023-08-12T14:31:13;26.80;56.20
38464;DHT22;24243;51.956;5.902;2023-08-12T14:33:59;26.80;56.20
38464;DHT22;24243;51.956;5.902;2023-08-12T14:36:44;26.80;56.10
38464;DHT22;24243;51.956;5.902;2023-08-12T14:39:30;26.80;56.10
38464;DHT22;24243;51.956;5.902;2023-08-12T14:42:17;26.70;56.00
38464;DHT22;24243;51.956;5.902;2023-08-12T14:45:03;26.70;56.00
38464;DHT22;24243;51.956;5.902;2023-08-12T14:47:49;26.80;56.00
38464;DHT22;24243;51.956;5.902;2023-08-12T14:50:36;26.80;56.00
38464;DHT22;24243;51.956;5.902;2023-08-12T14:53:22;26.70;55.80
38464;DHT22;24243;51.956;5.902;2023-08-12T14:56:08;26.80;55.80
38464;DHT22;24243;51.956;5.902;2023-08-12T14:58:53;26.70;55.50
38464;DHT22;24243;51.956;5.902;2023-08-12T15:01:39;26.70;55.50
38464;DHT22;24243;51.956;5.902;2023-08-12T15:04:24;26.70;55.40
38464;DHT22;24243;51.956;5.902;2023-08-12T15:07:10;26.70;55.30
38464;DHT22;24243;51.956;5.902;2023-08-12T15:09:55;26.70;55.20
38464;DHT22;24243;51.956;5.902;2023-08-12T15:12:43;26.70;55.10
38464;DHT22;24243;51.956;5.902;2023-08-12T15:15:28;26.70;55.10
38464;DHT22;24243;51.956;5.902;2023-08-12T15:18:14;26.70;55.00
38464;DHT22;24243;51.956;5.902;2023-08-12T15:20:59;26.70;55.00
38464;DHT22;24243;51.956;5.902;2023-08-12T15:23:45;26.70;54.90
38464;DHT22;24243;51.956;5.902;2023-08-12T15:26:31;26.70;54.80
38464;DHT22;24243;51.956;5.902;2023-08-12T15:29:16;26.70;54.80
38464;DHT22;24243;51.956;5.902;2023-08-12T15:32:02;26.70;54.70
38464;DHT22;24243;51.956;5.902;2023-08-12T15:34:48;26.70;54.60
38464;DHT22;24243;51.956;5.902;2023-08-12T15:37:34;26.60;54.50
38464;DHT22;24243;51.956;5.902;2023-08-12T15:40:19;26.60;54.50
38464;DHT22;24243;51.956;5.902;2023-08-12T15:43:05;26.60;54.40
38464;DHT22;24243;51.956;5.902;2023-08-12T15:45:51;26.60;54.40
38464;DHT22;24243;51.956;5.902;2023-08-12T15:48:36;26.60;54.90
38464;DHT22;24243;51.956;5.902;2023-08-12T15:51:22;26.60;54.20
38464;DHT22;24243;51.956;5.902;2023-08-12T15:54:07;26.60;54.20
38464;DHT22;24243;51.956;5.902;2023-08-12T15:56:53;26.60;54.10
38464;DHT22;24243;51.956;5.902;2023-08-12T15:59:39;26.60;54.10
38464;DHT22;24243;51.956;5.902;2023-08-12T16:02:24;26.60;54.10
38464;DHT22;24243;51.956;5.902;2023-08-12T16:05:10;26.60;54.00
38464;DHT22;24243;51.956;5.902;2023-08-12T16:07:55;26.60;53.90
38464;DHT22;24243;51.956;5.902;2023-08-12T16:10:41;26.50;53.80
38464;DHT22;24243;51.956;5.902;2023-08-12T16:13:27;26.50;53.70
38464;DHT22;24243;51.956;5.902;2023-08-12T16:16:12;26.50;53.70
38464;DHT22;24243;51.956;5.902;2023-08-12T16:18:58;26.50;53.70
38464;DHT22;24243;51.956;5.902;2023-08-12T16:21:43;26.50;53.60
38464;DHT22;24243;51.956;5.902;2023-08-12T16:24:29;26.50;53.60
38464;DHT22;24243;51.956;5.902;2023-08-12T16:27:14;26.50;53.50
38464;DHT22;24243;51.956;5.902;2023-08-12T16:30:00;26.50;53.50
38464;DHT22;24243;51.956;5.902;2023-08-12T16:32:46;26.50;53.50
38464;DHT22;24243;51.956;5.902;2023-08-12T16:35:31;26.50;53.40
38464;DHT22;24243;51.956;5.902;2023-08-12T16:38:17;26.40;53.40
38464;DHT22;24243;51.956;5.902;2023-08-12T16:41:04;26.40;53.40
38464;DHT22;24243;51.956;5.902;2023-08-12T16:43:50;26.40;53.40
38464;DHT22;24243;51.956;5.902;2023-08-12T16:46:35;26.40;53.30
38464;DHT22;24243;51.956;5.902;2023-08-12T16:49:21;26.40;53.30
38464;DHT22;24243;51.956;5.902;2023-08-12T16:52:06;26.40;53.40
38464;DHT22;24243;51.956;5.902;2023-08-12T16:54:52;26.40;53.40
38464;DHT22;24243;51.956;5.902;2023-08-12T16:57:37;26.40;53.40
38464;DHT22;24243;51.956;5.902;2023-08-12T17:00:23;26.40;53.40
38464;DHT22;24243;51.956;5.902;2023-08-12T17:03:09;26.30;53.30
38464;DHT22;24243;51.956;5.902;2023-08-12T17:05:54;26.30;53.30
38464;DHT22;24243;51.956;5.902;2023-08-12T17:08:40;26.40;53.40
38464;DHT22;24243;51.956;5.902;2023-08-12T17:11:25;26.30;53.40
38464;DHT22;24243;51.956;5.902;2023-08-12T17:14:11;26.30;53.40
38464;DHT22;24243;51.956;5.902;2023-08-12T17:16:56;26.30;53.40
38464;DHT22;24243;51.956;5.902;2023-08-12T17:19:42;26.30;53.40
38464;DHT22;24243;51.956;5.902;2023-08-12T17:22:27;26.30;53.40
38464;DHT22;24243;51.956;5.902;2023-08-12T17:25:13;26.30;53.30
38464;DHT22;24243;51.956;5.902;2023-08-12T17:27:59;26.30;53.30
38464;DHT22;24243;51.956;5.902;2023-08-12T17:30:44;26.30;53.20